Decoded Metar for OERF (RAFHA in SAUDI ARABIA) (IATA:RAH) | Meteo·Mobile Aviation Weather
aviador You're here:

OERF Decoded Metar

RAFHA in SAUDI ARABIA
Report Time2019-02-20 20:00:00
UTC Time2019-02-20 20:30:05
Flight Rules vfr VFR
WindCalm
Visibility9999 m
Phenomena:N/A
Clouds:N/A
Expected CloudBase > 6,400 ft AGL from Temp-Dew spread
CeilingNone
Temp17°C (ISA +5)
Dew Point01°C (34% RH)
AAT15.2°C
QNH1021 hPa
Density Alt1,870 ft
Elevation1,467 ft
Report Wrong Elevation
Raw Report
METAR OERF 202000Z 00000KT CAVOK 17/01 Q1021=

Extra information for OERF:More info

Metar Taf Metar & Taf Last 4 Metars F.Rules Stats Wind Profile Meteogram Temp Stats Airport Information Weather charts Add Link Nearby VenuesMetar ALERT Operation Metar Decoded Social comments